sensor_id;sensor_type;location;lat;lon;timestamp;P1;durP1;ratioP1;P2;durP2;ratioP2
12900;SDS011;6518;50.930;5.344;2023-07-22T00:01:07;10.57;;;6.30;;
12900;SDS011;6518;50.930;5.344;2023-07-22T00:03:33;7.03;;;5.97;;
12900;SDS011;6518;50.930;5.344;2023-07-22T00:06:06;9.90;;;6.50;;
12900;SDS011;6518;50.930;5.344;2023-07-22T00:08:35;8.20;;;6.15;;
12900;SDS011;6518;50.930;5.344;2023-07-22T00:11:04;7.43;;;6.00;;
12900;SDS011;6518;50.930;5.344;2023-07-22T00:13:31;11.55;;;6.18;;
12900;SDS011;6518;50.930;5.344;2023-07-22T00:15:59;10.02;;;6.57;;
12900;SDS011;6518;50.930;5.344;2023-07-22T00:18:29;6.88;;;5.85;;
12900;SDS011;6518;50.930;5.344;2023-07-22T00:20:56;9.25;;;6.38;;
12900;SDS011;6518;50.930;5.344;2023-07-22T00:23:24;6.28;;;5.63;;
12900;SDS011;6518;50.930;5.344;2023-07-22T00:25:51;6.15;;;5.38;;
12900;SDS011;6518;50.930;5.344;2023-07-22T00:28:18;11.60;;;5.90;;
12900;SDS011;6518;50.930;5.344;2023-07-22T00:30:45;8.30;;;5.95;;
12900;SDS011;6518;50.930;5.344;2023-07-22T00:33:14;7.85;;;5.65;;
12900;SDS011;6518;50.930;5.344;2023-07-22T00:35:41;7.70;;;5.90;;
12900;SDS011;6518;50.930;5.344;2023-07-22T00:38:08;7.78;;;6.10;;
12900;SDS011;6518;50.930;5.344;2023-07-22T00:40:37;6.88;;;5.70;;
12900;SDS011;6518;50.930;5.344;2023-07-22T00:43:04;6.20;;;5.60;;
12900;SDS011;6518;50.930;5.344;2023-07-22T00:45:32;8.18;;;6.18;;
12900;SDS011;6518;50.930;5.344;2023-07-22T00:47:59;9.25;;;5.97;;
12900;SDS011;6518;50.930;5.344;2023-07-22T00:50:26;6.78;;;6.07;;
12900;SDS011;6518;50.930;5.344;2023-07-22T00:52:53;7.05;;;5.80;;
12900;SDS011;6518;50.930;5.344;2023-07-22T00:55:20;7.03;;;5.85;;
12900;SDS011;6518;50.930;5.344;2023-07-22T00:57:49;6.25;;;5.65;;
12900;SDS011;6518;50.930;5.344;2023-07-22T01:00:15;7.78;;;6.22;;
12900;SDS011;6518;50.930;5.344;2023-07-22T01:02:42;9.15;;;6.28;;
12900;SDS011;6518;50.930;5.344;2023-07-22T01:05:11;8.43;;;6.03;;
12900;SDS011;6518;50.930;5.344;2023-07-22T01:07:38;10.18;;;6.78;;
12900;SDS011;6518;50.930;5.344;2023-07-22T01:10:06;8.70;;;5.80;;
12900;SDS011;6518;50.930;5.344;2023-07-22T01:12:34;7.45;;;6.40;;
12900;SDS011;6518;50.930;5.344;2023-07-22T01:15:03;8.48;;;6.80;;
12900;SDS011;6518;50.930;5.344;2023-07-22T01:17:32;8.57;;;6.80;;
12900;SDS011;6518;50.930;5.344;2023-07-22T01:20:00;8.10;;;6.68;;
12900;SDS011;6518;50.930;5.344;2023-07-22T01:22:27;9.95;;;6.18;;
12900;SDS011;6518;50.930;5.344;2023-07-22T01:24:57;8.52;;;6.57;;
12900;SDS011;6518;50.930;5.344;2023-07-22T01:27:25;7.43;;;6.68;;
12900;SDS011;6518;50.930;5.344;2023-07-22T01:29:51;7.95;;;6.32;;
12900;SDS011;6518;50.930;5.344;2023-07-22T01:32:19;7.53;;;6.77;;
12900;SDS011;6518;50.930;5.344;2023-07-22T01:34:46;9.02;;;6.55;;
12900;SDS011;6518;50.930;5.344;2023-07-22T01:37:13;8.18;;;6.43;;
12900;SDS011;6518;50.930;5.344;2023-07-22T01:39:39;11.80;;;6.95;;
12900;SDS011;6518;50.930;5.344;2023-07-22T01:42:08;11.38;;;7.15;;
12900;SDS011;6518;50.930;5.344;2023-07-22T01:44:35;8.88;;;5.88;;
12900;SDS011;6518;50.930;5.344;2023-07-22T01:47:02;8.38;;;6.55;;
12900;SDS011;6518;50.930;5.344;2023-07-22T01:49:29;9.07;;;6.55;;
12900;SDS011;6518;50.930;5.344;2023-07-22T01:51:56;7.50;;;6.70;;
12900;SDS011;6518;50.930;5.344;2023-07-22T01:54:23;8.57;;;6.43;;
12900;SDS011;6518;50.930;5.344;2023-07-22T01:56:49;9.23;;;6.93;;
12900;SDS011;6518;50.930;5.344;2023-07-22T01:59:18;7.90;;;6.57;;
12900;SDS011;6518;50.930;5.344;2023-07-22T02:01:44;10.60;;;6.65;;
12900;SDS011;6518;50.930;5.344;2023-07-22T02:04:12;9.03;;;6.77;;
12900;SDS011;6518;50.930;5.344;2023-07-22T02:06:39;9.90;;;7.10;;
12900;SDS011;6518;50.930;5.344;2023-07-22T02:09:06;9.07;;;7.03;;
12900;SDS011;6518;50.930;5.344;2023-07-22T02:11:34;7.23;;;6.50;;
12900;SDS011;6518;50.930;5.344;2023-07-22T02:14:01;9.45;;;6.43;;
12900;SDS011;6518;50.930;5.344;2023-07-22T02:16:33;8.33;;;7.10;;
12900;SDS011;6518;50.930;5.344;2023-07-22T02:19:00;8.60;;;6.78;;
12900;SDS011;6518;50.930;5.344;2023-07-22T02:21:27;7.85;;;6.60;;
12900;SDS011;6518;50.930;5.344;2023-07-22T02:23:54;7.72;;;6.38;;
12900;SDS011;6518;50.930;5.344;2023-07-22T02:26:21;11.40;;;7.18;;
12900;SDS011;6518;50.930;5.344;2023-07-22T02:28:48;8.52;;;7.30;;
12900;SDS011;6518;50.930;5.344;2023-07-22T02:31:14;10.83;;;7.37;;
12900;SDS011;6518;50.930;5.344;2023-07-22T02:33:43;9.30;;;6.97;;
12900;SDS011;6518;50.930;5.344;2023-07-22T02:36:10;8.73;;;7.25;;
12900;SDS011;6518;50.930;5.344;2023-07-22T02:38:36;9.13;;;7.23;;
12900;SDS011;6518;50.930;5.344;2023-07-22T02:41:03;9.40;;;7.80;;
12900;SDS011;6518;50.930;5.344;2023-07-22T02:43:33;8.60;;;7.70;;
12900;SDS011;6518;50.930;5.344;2023-07-22T02:46:00;9.50;;;7.20;;
12900;SDS011;6518;50.930;5.344;2023-07-22T02:48:29;7.80;;;6.97;;
12900;SDS011;6518;50.930;5.344;2023-07-22T02:51:02;10.17;;;7.60;;
12900;SDS011;6518;50.930;5.344;2023-07-22T02:53:30;11.70;;;8.30;;
12900;SDS011;6518;50.930;5.344;2023-07-22T02:55:57;9.43;;;8.02;;
12900;SDS011;6518;50.930;5.344;2023-07-22T02:58:25;11.50;;;7.90;;
12900;SDS011;6518;50.930;5.344;2023-07-22T03:00:52;9.00;;;7.87;;
12900;SDS011;6518;50.930;5.344;2023-07-22T03:03:18;10.00;;;8.63;;
12900;SDS011;6518;50.930;5.344;2023-07-22T03:05:47;8.73;;;7.53;;
12900;SDS011;6518;50.930;5.344;2023-07-22T03:08:16;12.83;;;8.87;;
12900;SDS011;6518;50.930;5.344;2023-07-22T03:10:43;10.53;;;7.97;;
12900;SDS011;6518;50.930;5.344;2023-07-22T03:13:13;10.47;;;8.23;;
12900;SDS011;6518;50.930;5.344;2023-07-22T03:15:40;10.15;;;7.70;;
12900;SDS011;6518;50.930;5.344;2023-07-22T03:18:07;12.40;;;8.17;;
12900;SDS011;6518;50.930;5.344;2023-07-22T03:20:35;10.10;;;8.37;;
12900;SDS011;6518;50.930;5.344;2023-07-22T03:23:02;9.10;;;7.70;;
12900;SDS011;6518;50.930;5.344;2023-07-22T03:25:30;10.63;;;8.60;;
12900;SDS011;6518;50.930;5.344;2023-07-22T03:27:58;10.63;;;8.60;;
12900;SDS011;6518;50.930;5.344;2023-07-22T03:30:28;11.90;;;8.07;;
12900;SDS011;6518;50.930;5.344;2023-07-22T03:32:54;11.20;;;8.13;;
12900;SDS011;6518;50.930;5.344;2023-07-22T03:35:22;12.40;;;8.93;;
12900;SDS011;6518;50.930;5.344;2023-07-22T03:37:49;13.63;;;9.00;;
12900;SDS011;6518;50.930;5.344;2023-07-22T03:40:16;11.40;;;9.15;;
12900;SDS011;6518;50.930;5.344;2023-07-22T03:42:46;11.10;;;9.43;;
12900;SDS011;6518;50.930;5.344;2023-07-22T03:45:13;10.57;;;9.15;;
12900;SDS011;6518;50.930;5.344;2023-07-22T03:47:40;13.70;;;9.10;;
12900;SDS011;6518;50.930;5.344;2023-07-22T03:50:07;13.57;;;8.93;;
12900;SDS011;6518;50.930;5.344;2023-07-22T03:52:35;11.37;;;9.23;;
12900;SDS011;6518;50.930;5.344;2023-07-22T03:55:02;10.73;;;9.37;;
12900;SDS011;6518;50.930;5.344;2023-07-22T03:57:30;12.77;;;9.13;;
12900;SDS011;6518;50.930;5.344;2023-07-22T03:59:59;10.57;;;8.90;;
12900;SDS011;6518;50.930;5.344;2023-07-22T04:02:26;11.50;;;9.15;;
12900;SDS011;6518;50.930;5.344;2023-07-22T04:04:53;11.37;;;9.27;;
12900;SDS011;6518;50.930;5.344;2023-07-22T04:07:21;12.00;;;9.03;;
12900;SDS011;6518;50.930;5.344;2023-07-22T04:09:48;12.47;;;9.43;;
12900;SDS011;6518;50.930;5.344;2023-07-22T04:12:15;14.57;;;9.98;;
12900;SDS011;6518;50.930;5.344;2023-07-22T04:14:42;12.70;;;9.00;;
12900;SDS011;6518;50.930;5.344;2023-07-22T04:17:10;14.83;;;8.77;;
12900;SDS011;6518;50.930;5.344;2023-07-22T04:19:37;13.80;;;9.43;;
12900;SDS011;6518;50.930;5.344;2023-07-22T04:22:04;12.05;;;9.40;;
12900;SDS011;6518;50.930;5.344;2023-07-22T04:24:32;12.60;;;9.20;;
12900;SDS011;6518;50.930;5.344;2023-07-22T04:27:00;14.70;;;9.77;;
12900;SDS011;6518;50.930;5.344;2023-07-22T04:29:27;12.80;;;9.77;;
12900;SDS011;6518;50.930;5.344;2023-07-22T04:31:56;12.60;;;9.97;;
12900;SDS011;6518;50.930;5.344;2023-07-22T04:34:25;11.47;;;9.43;;
12900;SDS011;6518;50.930;5.344;2023-07-22T04:36:55;12.50;;;9.87;;
12900;SDS011;6518;50.930;5.344;2023-07-22T04:39:22;15.13;;;10.37;;
12900;SDS011;6518;50.930;5.344;2023-07-22T04:41:49;14.73;;;10.00;;
12900;SDS011;6518;50.930;5.344;2023-07-22T04:44:16;12.40;;;9.70;;
12900;SDS011;6518;50.930;5.344;2023-07-22T04:46:43;13.63;;;9.43;;
12900;SDS011;6518;50.930;5.344;2023-07-22T04:49:10;16.38;;;9.88;;
12900;SDS011;6518;50.930;5.344;2023-07-22T04:51:39;13.00;;;9.50;;
12900;SDS011;6518;50.930;5.344;2023-07-22T04:54:06;11.37;;;9.60;;
12900;SDS011;6518;50.930;5.344;2023-07-22T04:56:33;15.40;;;9.87;;
12900;SDS011;6518;50.930;5.344;2023-07-22T04:58:59;14.80;;;10.23;;
12900;SDS011;6518;50.930;5.344;2023-07-22T05:01:27;14.40;;;9.63;;
12900;SDS011;6518;50.930;5.344;2023-07-22T05:03:55;13.45;;;10.25;;
12900;SDS011;6518;50.930;5.344;2023-07-22T05:06:23;12.27;;;9.97;;
12900;SDS011;6518;50.930;5.344;2023-07-22T05:08:51;15.57;;;9.68;;
12900;SDS011;6518;50.930;5.344;2023-07-22T05:11:18;15.77;;;10.40;;
12900;SDS011;6518;50.930;5.344;2023-07-22T05:13:45;12.90;;;9.80;;
12900;SDS011;6518;50.930;5.344;2023-07-22T05:16:12;11.77;;;10.17;;
12900;SDS011;6518;50.930;5.344;2023-07-22T05:18:39;13.15;;;9.75;;
12900;SDS011;6518;50.930;5.344;2023-07-22T05:21:05;13.40;;;10.10;;
12900;SDS011;6518;50.930;5.344;2023-07-22T05:23:32;14.10;;;10.25;;
12900;SDS011;6518;50.930;5.344;2023-07-22T05:26:01;14.85;;;10.40;;
12900;SDS011;6518;50.930;5.344;2023-07-22T05:28:28;13.80;;;10.00;;
12900;SDS011;6518;50.930;5.344;2023-07-22T05:30:55;13.05;;;10.27;;
12900;SDS011;6518;50.930;5.344;2023-07-22T05:33:22;14.32;;;10.00;;
12900;SDS011;6518;50.930;5.344;2023-07-22T05:35:49;13.23;;;10.02;;
12900;SDS011;6518;50.930;5.344;2023-07-22T05:38:15;12.48;;;9.98;;
12900;SDS011;6518;50.930;5.344;2023-07-22T05:40:42;15.98;;;9.95;;
12900;SDS011;6518;50.930;5.344;2023-07-22T05:43:11;14.93;;;10.45;;
12900;SDS011;6518;50.930;5.344;2023-07-22T05:45:37;15.27;;;10.20;;
12900;SDS011;6518;50.930;5.344;2023-07-22T05:48:04;16.58;;;10.05;;
12900;SDS011;6518;50.930;5.344;2023-07-22T05:50:32;17.83;;;10.32;;
12900;SDS011;6518;50.930;5.344;2023-07-22T05:52:59;13.10;;;9.63;;
12900;SDS011;6518;50.930;5.344;2023-07-22T05:55:26;14.43;;;9.60;;
12900;SDS011;6518;50.930;5.344;2023-07-22T05:57:52;14.27;;;9.18;;
12900;SDS011;6518;50.930;5.344;2023-07-22T06:00:21;12.25;;;9.52;;
12900;SDS011;6518;50.930;5.344;2023-07-22T06:02:48;17.08;;;10.45;;
12900;SDS011;6518;50.930;5.344;2023-07-22T06:05:15;13.07;;;8.77;;
12900;SDS011;6518;50.930;5.344;2023-07-22T06:07:42;14.65;;;10.45;;
12900;SDS011;6518;50.930;5.344;2023-07-22T06:10:09;12.40;;;9.68;;
12900;SDS011;6518;50.930;5.344;2023-07-22T06:12:36;18.08;;;9.98;;
12900;SDS011;6518;50.930;5.344;2023-07-22T06:15:04;12.15;;;9.57;;
12900;SDS011;6518;50.930;5.344;2023-07-22T06:17:32;14.93;;;9.82;;
12900;SDS011;6518;50.930;5.344;2023-07-22T06:20:01;15.18;;;10.32;;
12900;SDS011;6518;50.930;5.344;2023-07-22T06:22:27;17.85;;;10.27;;
12900;SDS011;6518;50.930;5.344;2023-07-22T06:24:54;15.43;;;10.18;;
12900;SDS011;6518;50.930;5.344;2023-07-22T06:27:21;14.23;;;9.40;;
12900;SDS011;6518;50.930;5.344;2023-07-22T06:29:48;13.15;;;9.77;;
12900;SDS011;6518;50.930;5.344;2023-07-22T06:32:15;14.20;;;9.23;;
12900;SDS011;6518;50.930;5.344;2023-07-22T06:34:43;12.25;;;9.23;;
12900;SDS011;6518;50.930;5.344;2023-07-22T06:37:10;16.55;;;9.38;;
12900;SDS011;6518;50.930;5.344;2023-07-22T06:39:37;17.08;;;9.73;;
12900;SDS011;6518;50.930;5.344;2023-07-22T06:42:04;14.52;;;8.85;;
12900;SDS011;6518;50.930;5.344;2023-07-22T06:44:32;14.55;;;9.00;;
12900;SDS011;6518;50.930;5.344;2023-07-22T06:46:59;11.23;;;8.38;;
12900;SDS011;6518;50.930;5.344;2023-07-22T06:49:25;13.77;;;8.57;;
12900;SDS011;6518;50.930;5.344;2023-07-22T06:51:54;11.27;;;8.15;;
12900;SDS011;6518;50.930;5.344;2023-07-22T06:54:21;12.25;;;8.00;;
12900;SDS011;6518;50.930;5.344;2023-07-22T06:56:48;13.02;;;8.63;;
12900;SDS011;6518;50.930;5.344;2023-07-22T06:59:14;18.02;;;8.88;;
12900;SDS011;6518;50.930;5.344;2023-07-22T07:01:41;11.98;;;8.25;;
12900;SDS011;6518;50.930;5.344;2023-07-22T07:04:08;12.10;;;8.25;;
12900;SDS011;6518;50.930;5.344;2023-07-22T07:06:35;17.48;;;8.80;;
12900;SDS011;6518;50.930;5.344;2023-07-22T07:09:04;14.35;;;8.57;;
12900;SDS011;6518;50.930;5.344;2023-07-22T07:11:31;12.93;;;7.95;;
12900;SDS011;6518;50.930;5.344;2023-07-22T07:13:58;13.88;;;8.55;;
12900;SDS011;6518;50.930;5.344;2023-07-22T07:16:26;11.00;;;8.20;;
12900;SDS011;6518;50.930;5.344;2023-07-22T07:18:53;13.40;;;7.80;;
12900;SDS011;6518;50.930;5.344;2023-07-22T07:21:21;11.35;;;7.93;;
12900;SDS011;6518;50.930;5.344;2023-07-22T07:23:48;13.68;;;7.75;;
12900;SDS011;6518;50.930;5.344;2023-07-22T07:26:18;22.38;;;7.50;;
12900;SDS011;6518;50.930;5.344;2023-07-22T07:28:45;11.40;;;7.00;;
12900;SDS011;6518;50.930;5.344;2023-07-22T07:31:12;10.02;;;6.93;;
12900;SDS011;6518;50.930;5.344;2023-07-22T07:33:39;13.02;;;7.18;;
12900;SDS011;6518;50.930;5.344;2023-07-22T07:36:06;11.02;;;7.05;;
12900;SDS011;6518;50.930;5.344;2023-07-22T07:38:33;9.45;;;6.35;;
12900;SDS011;6518;50.930;5.344;2023-07-22T07:41:02;11.25;;;7.05;;
12900;SDS011;6518;50.930;5.344;2023-07-22T07:43:34;13.02;;;6.47;;
12900;SDS011;6518;50.930;5.344;2023-07-22T07:46:15;8.98;;;5.75;;
12900;SDS011;6518;50.930;5.344;2023-07-22T07:48:44;12.82;;;6.82;;
12900;SDS011;6518;50.930;5.344;2023-07-22T07:51:11;10.32;;;6.25;;
12900;SDS011;6518;50.930;5.344;2023-07-22T07:53:39;9.20;;;6.15;;
12900;SDS011;6518;50.930;5.344;2023-07-22T07:56:06;12.30;;;6.53;;
12900;SDS011;6518;50.930;5.344;2023-07-22T07:58:34;14.85;;;6.65;;
12900;SDS011;6518;50.930;5.344;2023-07-22T08:01:01;11.68;;;6.28;;
12900;SDS011;6518;50.930;5.344;2023-07-22T08:03:28;11.07;;;6.22;;
12900;SDS011;6518;50.930;5.344;2023-07-22T08:05:56;12.60;;;6.10;;
12900;SDS011;6518;50.930;5.344;2023-07-22T08:08:22;12.52;;;6.32;;
12900;SDS011;6518;50.930;5.344;2023-07-22T08:10:57;9.32;;;5.72;;
12900;SDS011;6518;50.930;5.344;2023-07-22T08:13:24;14.35;;;6.05;;
12900;SDS011;6518;50.930;5.344;2023-07-22T08:15:52;10.25;;;5.65;;
12900;SDS011;6518;50.930;5.344;2023-07-22T08:18:19;7.43;;;5.28;;
12900;SDS011;6518;50.930;5.344;2023-07-22T08:20:46;7.40;;;4.63;;
12900;SDS011;6518;50.930;5.344;2023-07-22T08:23:13;9.68;;;5.45;;
12900;SDS011;6518;50.930;5.344;2023-07-22T08:25:40;8.02;;;4.80;;
12900;SDS011;6518;50.930;5.344;2023-07-22T08:28:07;8.18;;;4.50;;
12900;SDS011;6518;50.930;5.344;2023-07-22T08:30:34;8.05;;;4.78;;
12900;SDS011;6518;50.930;5.344;2023-07-22T08:33:02;9.00;;;4.68;;
12900;SDS011;6518;50.930;5.344;2023-07-22T08:35:29;7.38;;;4.47;;
12900;SDS011;6518;50.930;5.344;2023-07-22T08:37:56;9.13;;;4.15;;
12900;SDS011;6518;50.930;5.344;2023-07-22T08:40:24;9.20;;;4.28;;
12900;SDS011;6518;50.930;5.344;2023-07-22T08:42:51;8.20;;;4.15;;
12900;SDS011;6518;50.930;5.344;2023-07-22T08:45:19;8.27;;;4.35;;
12900;SDS011;6518;50.930;5.344;2023-07-22T08:47:47;6.60;;;3.60;;
12900;SDS011;6518;50.930;5.344;2023-07-22T08:50:20;6.97;;;3.65;;
12900;SDS011;6518;50.930;5.344;2023-07-22T08:52:48;7.45;;;3.80;;
12900;SDS011;6518;50.930;5.344;2023-07-22T08:55:15;4.50;;;3.38;;
12900;SDS011;6518;50.930;5.344;2023-07-22T08:57:42;5.43;;;3.15;;
12900;SDS011;6518;50.930;5.344;2023-07-22T09:00:11;8.43;;;4.15;;
12900;SDS011;6518;50.930;5.344;2023-07-22T09:02:39;7.72;;;3.30;;
12900;SDS011;6518;50.930;5.344;2023-07-22T09:05:07;5.90;;;3.33;;
12900;SDS011;6518;50.930;5.344;2023-07-22T09:07:36;6.32;;;3.67;;
12900;SDS011;6518;50.930;5.344;2023-07-22T09:10:04;7.47;;;3.30;;
12900;SDS011;6518;50.930;5.344;2023-07-22T09:12:34;8.80;;;4.13;;
12900;SDS011;6518;50.930;5.344;2023-07-22T09:15:05;6.82;;;3.50;;
12900;SDS011;6518;50.930;5.344;2023-07-22T09:17:35;8.77;;;3.17;;
12900;SDS011;6518;50.930;5.344;2023-07-22T09:20:03;5.13;;;3.10;;
12900;SDS011;6518;50.930;5.344;2023-07-22T09:22:31;5.18;;;3.45;;
12900;SDS011;6518;50.930;5.344;2023-07-22T09:27:44;4.65;;;2.65;;
12900;SDS011;6518;50.930;5.344;2023-07-22T09:30:20;5.10;;;2.70;;
12900;SDS011;6518;50.930;5.344;2023-07-22T09:32:49;4.53;;;2.30;;
12900;SDS011;6518;50.930;5.344;2023-07-22T09:35:16;5.18;;;2.65;;
12900;SDS011;6518;50.930;5.344;2023-07-22T09:37:43;4.80;;;2.50;;
12900;SDS011;6518;50.930;5.344;2023-07-22T09:40:15;3.63;;;2.30;;
12900;SDS011;6518;50.930;5.344;2023-07-22T09:42:46;4.70;;;2.38;;
12900;SDS011;6518;50.930;5.344;2023-07-22T09:45:14;6.05;;;2.20;;
12900;SDS011;6518;50.930;5.344;2023-07-22T09:47:41;4.80;;;2.50;;
12900;SDS011;6518;50.930;5.344;2023-07-22T09:50:13;2.97;;;2.17;;
12900;SDS011;6518;50.930;5.344;2023-07-22T09:52:45;3.75;;;2.20;;
12900;SDS011;6518;50.930;5.344;2023-07-22T09:55:15;4.32;;;2.10;;
12900;SDS011;6518;50.930;5.344;2023-07-22T09:57:44;3.85;;;2.38;;
12900;SDS011;6518;50.930;5.344;2023-07-22T10:00:12;3.92;;;2.40;;
12900;SDS011;6518;50.930;5.344;2023-07-22T10:02:41;5.28;;;2.05;;
12900;SDS011;6518;50.930;5.344;2023-07-22T10:05:13;4.32;;;2.22;;
12900;SDS011;6518;50.930;5.344;2023-07-22T10:07:45;4.45;;;2.50;;
12900;SDS011;6518;50.930;5.344;2023-07-22T10:10:15;4.55;;;2.25;;
12900;SDS011;6518;50.930;5.344;2023-07-22T10:12:43;3.88;;;2.67;;
12900;SDS011;6518;50.930;5.344;2023-07-22T10:15:11;5.38;;;2.20;;
12900;SDS011;6518;50.930;5.344;2023-07-22T10:17:39;4.97;;;3.05;;
12900;SDS011;6518;50.930;5.344;2023-07-22T10:20:07;5.35;;;1.98;;
12900;SDS011;6518;50.930;5.344;2023-07-22T10:22:40;3.88;;;1.80;;
12900;SDS011;6518;50.930;5.344;2023-07-22T10:25:07;4.13;;;2.05;;
12900;SDS011;6518;50.930;5.344;2023-07-22T10:27:37;4.13;;;2.08;;
12900;SDS011;6518;50.930;5.344;2023-07-22T10:30:07;5.00;;;2.70;;
12900;SDS011;6518;50.930;5.344;2023-07-22T10:32:35;4.95;;;3.10;;
12900;SDS011;6518;50.930;5.344;2023-07-22T10:35:04;3.58;;;1.98;;
12900;SDS011;6518;50.930;5.344;2023-07-22T10:37:35;2.40;;;1.70;;
12900;SDS011;6518;50.930;5.344;2023-07-22T10:42:53;4.68;;;2.00;;
12900;SDS011;6518;50.930;5.344;2023-07-22T10:45:23;3.15;;;2.20;;
12900;SDS011;6518;50.930;5.344;2023-07-22T10:47:59;6.00;;;2.40;;
12900;SDS011;6518;50.930;5.344;2023-07-22T10:50:37;3.05;;;1.92;;
12900;SDS011;6518;50.930;5.344;2023-07-22T10:53:06;3.22;;;1.80;;
12900;SDS011;6518;50.930;5.344;2023-07-22T10:55:49;5.88;;;3.95;;
12900;SDS011;6518;50.930;5.344;2023-07-22T10:58:31;2.55;;;1.80;;
12900;SDS011;6518;50.930;5.344;2023-07-22T11:04:05;3.80;;;1.95;;
12900;SDS011;6518;50.930;5.344;2023-07-22T11:06:40;2.63;;;1.90;;
12900;SDS011;6518;50.930;5.344;2023-07-22T11:09:35;4.45;;;2.15;;
12900;SDS011;6518;50.930;5.344;2023-07-22T11:12:04;3.20;;;1.80;;
12900;SDS011;6518;50.930;5.344;2023-07-22T11:14:34;3.97;;;2.30;;
12900;SDS011;6518;50.930;5.344;2023-07-22T11:17:04;5.03;;;2.50;;
12900;SDS011;6518;50.930;5.344;2023-07-22T11:19:33;3.60;;;2.00;;
12900;SDS011;6518;50.930;5.344;2023-07-22T11:22:01;2.45;;;1.98;;
12900;SDS011;6518;50.930;5.344;2023-07-22T11:24:28;1.92;;;1.77;;
12900;SDS011;6518;50.930;5.344;2023-07-22T11:26:55;3.08;;;2.00;;
12900;SDS011;6518;50.930;5.344;2023-07-22T11:29:22;2.70;;;1.90;;
12900;SDS011;6518;50.930;5.344;2023-07-22T11:31:51;2.53;;;2.00;;
12900;SDS011;6518;50.930;5.344;2023-07-22T11:34:18;2.92;;;2.00;;
12900;SDS011;6518;50.930;5.344;2023-07-22T11:36:47;5.07;;;1.88;;
12900;SDS011;6518;50.930;5.344;2023-07-22T11:39:16;3.22;;;2.45;;
12900;SDS011;6518;50.930;5.344;2023-07-22T11:41:43;3.30;;;2.25;;
12900;SDS011;6518;50.930;5.344;2023-07-22T11:44:12;2.70;;;2.28;;
12900;SDS011;6518;50.930;5.344;2023-07-22T11:46:51;4.22;;;2.50;;
12900;SDS011;6518;50.930;5.344;2023-07-22T11:49:23;5.22;;;2.40;;
12900;SDS011;6518;50.930;5.344;2023-07-22T11:51:53;4.40;;;1.92;;
12900;SDS011;6518;50.930;5.344;2023-07-22T11:54:21;2.75;;;1.90;;
12900;SDS011;6518;50.930;5.344;2023-07-22T11:56:48;2.28;;;1.85;;
12900;SDS011;6518;50.930;5.344;2023-07-22T11:59:15;3.33;;;1.88;;
12900;SDS011;6518;50.930;5.344;2023-07-22T12:01:43;4.93;;;1.88;;
12900;SDS011;6518;50.930;5.344;2023-07-22T12:04:13;2.72;;;1.92;;
12900;SDS011;6518;50.930;5.344;2023-07-22T12:06:40;2.28;;;1.90;;
12900;SDS011;6518;50.930;5.344;2023-07-22T12:09:07;3.00;;;1.80;;
12900;SDS011;6518;50.930;5.344;2023-07-22T12:11:35;2.55;;;1.70;;
12900;SDS011;6518;50.930;5.344;2023-07-22T12:14:08;1.75;;;1.50;;
12900;SDS011;6518;50.930;5.344;2023-07-22T12:16:37;2.85;;;1.83;;
12900;SDS011;6518;50.930;5.344;2023-07-22T12:19:05;2.50;;;1.63;;
12900;SDS011;6518;50.930;5.344;2023-07-22T12:21:34;4.15;;;1.60;;
12900;SDS011;6518;50.930;5.344;2023-07-22T12:24:01;2.75;;;1.50;;
12900;SDS011;6518;50.930;5.344;2023-07-22T12:26:29;2.38;;;1.58;;
12900;SDS011;6518;50.930;5.344;2023-07-22T12:28:56;2.30;;;1.70;;
12900;SDS011;6518;50.930;5.344;2023-07-22T12:31:24;1.90;;;1.67;;
12900;SDS011;6518;50.930;5.344;2023-07-22T12:33:51;4.32;;;1.65;;
12900;SDS011;6518;50.930;5.344;2023-07-22T12:36:18;4.53;;;1.65;;
12900;SDS011;6518;50.930;5.344;2023-07-22T12:38:46;3.33;;;1.92;;
12900;SDS011;6518;50.930;5.344;2023-07-22T12:41:13;3.33;;;1.80;;
12900;SDS011;6518;50.930;5.344;2023-07-22T12:43:40;4.45;;;1.75;;
12900;SDS011;6518;50.930;5.344;2023-07-22T12:46:07;2.10;;;1.60;;
12900;SDS011;6518;50.930;5.344;2023-07-22T12:48:33;2.88;;;1.88;;
12900;SDS011;6518;50.930;5.344;2023-07-22T12:51:00;3.30;;;1.50;;
12900;SDS011;6518;50.930;5.344;2023-07-22T12:53:27;3.30;;;2.20;;
12900;SDS011;6518;50.930;5.344;2023-07-22T12:55:56;2.28;;;1.67;;
12900;SDS011;6518;50.930;5.344;2023-07-22T12:58:23;1.95;;;1.77;;
12900;SDS011;6518;50.930;5.344;2023-07-22T13:00:49;2.83;;;1.77;;
12900;SDS011;6518;50.930;5.344;2023-07-22T13:03:16;2.47;;;1.80;;
12900;SDS011;6518;50.930;5.344;2023-07-22T13:05:43;3.65;;;1.85;;
12900;SDS011;6518;50.930;5.344;2023-07-22T13:08:10;5.00;;;2.00;;
12900;SDS011;6518;50.930;5.344;2023-07-22T13:10:37;3.63;;;2.00;;
12900;SDS011;6518;50.930;5.344;2023-07-22T13:13:05;2.45;;;1.80;;
12900;SDS011;6518;50.930;5.344;2023-07-22T13:15:32;4.25;;;2.03;;
12900;SDS011;6518;50.930;5.344;2023-07-22T13:17:59;3.78;;;1.80;;
12900;SDS011;6518;50.930;5.344;2023-07-22T13:20:26;4.63;;;2.03;;
12900;SDS011;6518;50.930;5.344;2023-07-22T13:22:53;2.17;;;1.98;;
12900;SDS011;6518;50.930;5.344;2023-07-22T13:25:20;3.75;;;2.10;;
12900;SDS011;6518;50.930;5.344;2023-07-22T13:27:47;4.57;;;1.83;;
12900;SDS011;6518;50.930;5.344;2023-07-22T13:30:15;2.55;;;2.20;;
12900;SDS011;6518;50.930;5.344;2023-07-22T13:32:42;3.20;;;1.90;;
12900;SDS011;6518;50.930;5.344;2023-07-22T13:35:09;3.35;;;2.25;;
12900;SDS011;6518;50.930;5.344;2023-07-22T13:37:36;3.38;;;2.28;;
12900;SDS011;6518;50.930;5.344;2023-07-22T13:40:03;3.30;;;2.25;;
12900;SDS011;6518;50.930;5.344;2023-07-22T13:42:35;4.55;;;2.83;;
12900;SDS011;6518;50.930;5.344;2023-07-22T13:45:03;5.05;;;2.13;;
12900;SDS011;6518;50.930;5.344;2023-07-22T13:47:32;5.78;;;2.40;;
12900;SDS011;6518;50.930;5.344;2023-07-22T13:49:59;3.53;;;2.58;;
12900;SDS011;6518;50.930;5.344;2023-07-22T13:52:25;5.45;;;2.17;;
12900;SDS011;6518;50.930;5.344;2023-07-22T13:54:52;3.38;;;2.00;;
12900;SDS011;6518;50.930;5.344;2023-07-22T13:57:19;4.03;;;2.38;;
12900;SDS011;6518;50.930;5.344;2023-07-22T13:59:46;3.25;;;2.15;;
12900;SDS011;6518;50.930;5.344;2023-07-22T14:02:13;3.67;;;2.40;;
12900;SDS011;6518;50.930;5.344;2023-07-22T14:04:41;3.85;;;2.10;;
12900;SDS011;6518;50.930;5.344;2023-07-22T14:07:08;3.25;;;2.30;;
12900;SDS011;6518;50.930;5.344;2023-07-22T14:09:35;4.10;;;2.38;;
12900;SDS011;6518;50.930;5.344;2023-07-22T14:12:02;3.15;;;2.30;;
12900;SDS011;6518;50.930;5.344;2023-07-22T14:14:29;5.70;;;2.70;;
12900;SDS011;6518;50.930;5.344;2023-07-22T14:16:56;7.20;;;2.53;;
12900;SDS011;6518;50.930;5.344;2023-07-22T14:19:23;4.13;;;2.20;;
12900;SDS011;6518;50.930;5.344;2023-07-22T14:21:51;4.07;;;2.40;;
12900;SDS011;6518;50.930;5.344;2023-07-22T14:24:18;4.30;;;1.98;;
12900;SDS011;6518;50.930;5.344;2023-07-22T14:26:45;2.72;;;2.13;;
12900;SDS011;6518;50.930;5.344;2023-07-22T14:29:13;4.28;;;2.40;;
12900;SDS011;6518;50.930;5.344;2023-07-22T14:31:41;6.55;;;3.33;;
12900;SDS011;6518;50.930;5.344;2023-07-22T14:34:09;4.25;;;2.83;;
12900;SDS011;6518;50.930;5.344;2023-07-22T14:36:35;5.15;;;2.50;;
12900;SDS011;6518;50.930;5.344;2023-07-22T14:39:04;3.10;;;1.90;;
12900;SDS011;6518;50.930;5.344;2023-07-22T14:41:31;4.18;;;2.05;;
12900;SDS011;6518;50.930;5.344;2023-07-22T14:43:58;10.98;;;2.00;;
12900;SDS011;6518;50.930;5.344;2023-07-22T14:46:24;3.75;;;1.80;;
12900;SDS011;6518;50.930;5.344;2023-07-22T14:48:51;3.05;;;1.83;;
12900;SDS011;6518;50.930;5.344;2023-07-22T14:51:18;3.85;;;1.95;;
12900;SDS011;6518;50.930;5.344;2023-07-22T14:53:45;5.55;;;2.00;;
12900;SDS011;6518;50.930;5.344;2023-07-22T14:56:13;4.18;;;2.25;;
12900;SDS011;6518;50.930;5.344;2023-07-22T14:58:40;2.10;;;1.60;;
12900;SDS011;6518;50.930;5.344;2023-07-22T15:01:08;2.50;;;1.67;;
12900;SDS011;6518;50.930;5.344;2023-07-22T15:03:35;4.07;;;2.35;;
12900;SDS011;6518;50.930;5.344;2023-07-22T15:06:02;3.45;;;1.63;;
12900;SDS011;6518;50.930;5.344;2023-07-22T15:08:29;5.60;;;2.00;;